Terminal Aerodrome Forecast
Issued by NWS

Home | Current Version | Previous Version | Text Only | Print | Product List | Glossary On
Versions: 1 2 3 4 5 6 7 8 9 10 11 12 13 14 15 16 17 18 19 20 21
646
FTUS43 KMQT 271720
TAFIWD
TAF
KIWD 271720Z 2718/2818 21007KT P6SM BKN025
     FM271900 21006KT P6SM BKN045
     FM280700 18006KT 6SM -SN OVC080
     FM280800 18006KT 5SM -SN OVC060
     FM281100 17005KT 3SM -SN OVC015
     FM281200 17005KT 2SM -RA OVC008
     FM281300 19003KT 1 1/2SM -RA OVC003=

USA.gov is the U.S. government's official web portal to all federal, state and local government web resources and services.